Lachute, Canada
Current Conditions -  °F | °C
As of 10:00 AM on Saturday 20 Dec 2014 (Local Time) from CYMX Reporting Station
Few Clouds Few Clouds  
Wind Chill: 10°   Ceiling: Unl
Heat Index: 10°   Visibility: 25mi
Dew Point:   Wind: 2mph
Humidity: 85%   Direction: NA
Pressure: 30.36"   Gusts: NA
Location:  45.65°N, 74.33°W
Report Text: CYMX 201500Z VRB02KT 25SM FEW011 FEW250 M12/M14 A3036 RMK SC1CI1 SC TR CI TR SLP288
Loading
Personal Weather Stations






























Interactive Weather Map New forecast layout! Learn more

10-Day Weather Forecast

Advertisements
Track Severe Weather on mobile